Taylor, NE (68879)

10:39 AM CST on January 17, 2017 (GMT -0600)
ME4455 | | Change Station

Elev 2338 ft 41.64 °N, 99.38 °W | Updated 37 minutes ago

Clear
Clear
21.0 °F
Feels Like 21 °F
N
3.0
Wind Variable Wind from West
Gusts 9.0 mph

Today
High -- | Low -- °F
--% Chance of Precip.
Yesterday
High -- | Low -- °F
Precip. -- in
Pressure 30.16 in
Visibility 10.0 miles
Clouds Clear
Windchill 21 °F
Dew Point 16 °F
Humidity 82%
Rainfall 0.14 in
Snow Depth Not available.
8:01 AM 5:34 PM
Waning Gibbous, 71% visible
METAR KODX 171553Z AUTO 33006KT 10SM CLR M04/M08 A3008 RMK AO2 SLP212 T10441078
Pressure 30.16 in
Visibility 10.0 miles
Clouds Clear
Windchill 21 °F
Dew Point 16 °F
Humidity 82%
Rainfall 0.14 in
Snow Depth Not available.
8:01 AM 5:34 PM
Waning Gibbous, 71% visible
METAR KODX 171553Z AUTO 33006KT 10SM CLR M04/M08 A3008 RMK AO2 SLP212 T10441078

Get Your Daily Forecast Email!

Thanks for signing up!

Be on the lookout for a verification email in your inbox.

You'll start receiving the daily forecast at 8 AM.

×

10-Day Weather Forecast

Almanac

Astronomy

Jan. 17, 2017 Rise Set
Actual Time
Civil Twilight
Nautical Twilight
Astronomical Twilight
Moon
Length of Visible Light
Length of Day
Tomorrow will be .
, % of the Moon is Illuminated

Today's Extremes

State Highs State Lows

Community

WunderPhotos

Upload Photos

1,962,540 photos uploaded!

WunderBlog® & News

Nearby

Air Quality

  Air Quality AQ Index Pollutant
Not available.

Snow Depth

Station Depth Elevation

Earthquake Activity

City Distance Mag. Time & Date
Minimum magnitude displayed is 2.5.

Coastal Water Temperatures

Place Temperature

Stations

Nearby Weather Stations

Station Location Temp. Windchill Dew Point Humidity Wind Precip. Elev Updated Type
                   

Watches & Warnings

There are currently no watches in effect.